sensor_id;sensor_type;location;lat;lon;timestamp;P1;durP1;ratioP1;P2;durP2;ratioP2
74821;SDS011;63353;48.702;8.884;2023-03-15T00:00:57;5.70;;;2.90;;
74821;SDS011;63353;48.702;8.884;2023-03-15T00:03:23;6.30;;;3.00;;
74821;SDS011;63353;48.702;8.884;2023-03-15T00:05:49;7.33;;;2.80;;
74821;SDS011;63353;48.702;8.884;2023-03-15T00:08:22;8.20;;;2.80;;
74821;SDS011;63353;48.702;8.884;2023-03-15T00:10:48;6.27;;;2.73;;
74821;SDS011;63353;48.702;8.884;2023-03-15T00:13:23;7.47;;;2.50;;
74821;SDS011;63353;48.702;8.884;2023-03-15T00:15:50;6.27;;;2.53;;
74821;SDS011;63353;48.702;8.884;2023-03-15T00:18:21;5.37;;;2.23;;
74821;SDS011;63353;48.702;8.884;2023-03-15T00:20:49;8.63;;;2.57;;
74821;SDS011;63353;48.702;8.884;2023-03-15T00:23:15;4.27;;;2.50;;
74821;SDS011;63353;48.702;8.884;2023-03-15T00:25:45;5.50;;;2.57;;
74821;SDS011;63353;48.702;8.884;2023-03-15T00:28:14;6.57;;;2.80;;
74821;SDS011;63353;48.702;8.884;2023-03-15T00:30:46;8.60;;;2.90;;
74821;SDS011;63353;48.702;8.884;2023-03-15T00:33:12;4.50;;;2.53;;
74821;SDS011;63353;48.702;8.884;2023-03-15T00:35:42;6.00;;;2.77;;
74821;SDS011;63353;48.702;8.884;2023-03-15T00:38:15;5.60;;;3.20;;
74821;SDS011;63353;48.702;8.884;2023-03-15T00:40:43;7.33;;;2.90;;
74821;SDS011;63353;48.702;8.884;2023-03-15T00:43:15;5.37;;;2.47;;
74821;SDS011;63353;48.702;8.884;2023-03-15T00:45:41;6.87;;;2.97;;
74821;SDS011;63353;48.702;8.884;2023-03-15T00:48:09;4.63;;;2.50;;
74821;SDS011;63353;48.702;8.884;2023-03-15T00:50:34;4.03;;;2.60;;
74821;SDS011;63353;48.702;8.884;2023-03-15T00:53:00;6.13;;;2.60;;
74821;SDS011;63353;48.702;8.884;2023-03-15T00:55:32;3.30;;;2.50;;
74821;SDS011;63353;48.702;8.884;2023-03-15T00:57:57;4.00;;;2.40;;
74821;SDS011;63353;48.702;8.884;2023-03-15T01:00:23;9.07;;;2.70;;
74821;SDS011;63353;48.702;8.884;2023-03-15T01:02:50;4.30;;;2.57;;
74821;SDS011;63353;48.702;8.884;2023-03-15T01:05:16;5.07;;;2.50;;
74821;SDS011;63353;48.702;8.884;2023-03-15T01:07:42;5.33;;;2.40;;
74821;SDS011;63353;48.702;8.884;2023-03-15T01:10:09;4.80;;;2.50;;
74821;SDS011;63353;48.702;8.884;2023-03-15T01:12:36;2.67;;;2.17;;
74821;SDS011;63353;48.702;8.884;2023-03-15T01:15:03;3.10;;;2.17;;
74821;SDS011;63353;48.702;8.884;2023-03-15T01:17:30;5.90;;;1.97;;
74821;SDS011;63353;48.702;8.884;2023-03-15T01:19:56;5.30;;;2.40;;
74821;SDS011;63353;48.702;8.884;2023-03-15T01:22:23;4.53;;;1.83;;
74821;SDS011;63353;48.702;8.884;2023-03-15T01:24:48;3.10;;;1.60;;
74821;SDS011;63353;48.702;8.884;2023-03-15T01:27:17;5.33;;;1.83;;
74821;SDS011;63353;48.702;8.884;2023-03-15T01:29:48;3.80;;;1.80;;
74821;SDS011;63353;48.702;8.884;2023-03-15T01:32:14;3.17;;;1.80;;
74821;SDS011;63353;48.702;8.884;2023-03-15T01:34:40;2.83;;;1.93;;
74821;SDS011;63353;48.702;8.884;2023-03-15T01:37:10;3.83;;;1.70;;
74821;SDS011;63353;48.702;8.884;2023-03-15T01:39:39;2.93;;;1.80;;
74821;SDS011;63353;48.702;8.884;2023-03-15T01:42:12;4.57;;;1.90;;
74821;SDS011;63353;48.702;8.884;2023-03-15T01:44:51;4.13;;;1.77;;
74821;SDS011;63353;48.702;8.884;2023-03-15T01:47:21;2.93;;;1.77;;
74821;SDS011;63353;48.702;8.884;2023-03-15T01:49:52;3.33;;;1.77;;
74821;SDS011;63353;48.702;8.884;2023-03-15T01:52:32;6.23;;;2.03;;
74821;SDS011;63353;48.702;8.884;2023-03-15T01:57:36;3.53;;;1.60;;
74821;SDS011;63353;48.702;8.884;2023-03-15T02:00:10;2.40;;;1.80;;
74821;SDS011;63353;48.702;8.884;2023-03-15T02:02:51;3.97;;;1.97;;
74821;SDS011;63353;48.702;8.884;2023-03-15T02:05:30;7.97;;;1.80;;
74821;SDS011;63353;48.702;8.884;2023-03-15T02:08:03;2.27;;;2.03;;
74821;SDS011;63353;48.702;8.884;2023-03-15T02:10:33;6.67;;;2.30;;
74821;SDS011;63353;48.702;8.884;2023-03-15T02:13:07;4.53;;;2.37;;
74821;SDS011;63353;48.702;8.884;2023-03-15T02:15:42;4.83;;;1.90;;
74821;SDS011;63353;48.702;8.884;2023-03-15T02:18:19;5.37;;;2.27;;
74821;SDS011;63353;48.702;8.884;2023-03-15T02:21:07;2.83;;;2.10;;
74821;SDS011;63353;48.702;8.884;2023-03-15T02:23:40;3.60;;;2.10;;
74821;SDS011;63353;48.702;8.884;2023-03-15T02:28:43;5.17;;;2.30;;
74821;SDS011;63353;48.702;8.884;2023-03-15T02:31:08;2.73;;;2.00;;
74821;SDS011;63353;48.702;8.884;2023-03-15T02:36:19;4.07;;;2.07;;
74821;SDS011;63353;48.702;8.884;2023-03-15T02:38:55;3.87;;;2.30;;
74821;SDS011;63353;48.702;8.884;2023-03-15T02:41:44;8.80;;;2.50;;
74821;SDS011;63353;48.702;8.884;2023-03-15T02:44:15;7.67;;;2.73;;
74821;SDS011;63353;48.702;8.884;2023-03-15T02:46:51;9.73;;;2.93;;
74821;SDS011;63353;48.702;8.884;2023-03-15T02:49:20;5.20;;;2.40;;
74821;SDS011;63353;48.702;8.884;2023-03-15T02:51:49;5.67;;;2.40;;
74821;SDS011;63353;48.702;8.884;2023-03-15T02:54:17;6.30;;;2.73;;
74821;SDS011;63353;48.702;8.884;2023-03-15T02:56:49;5.87;;;2.60;;
74821;SDS011;63353;48.702;8.884;2023-03-15T02:59:15;2.93;;;2.50;;
74821;SDS011;63353;48.702;8.884;2023-03-15T03:01:41;3.57;;;2.17;;
74821;SDS011;63353;48.702;8.884;2023-03-15T03:04:18;4.03;;;2.60;;
74821;SDS011;63353;48.702;8.884;2023-03-15T03:06:50;4.80;;;2.83;;
74821;SDS011;63353;48.702;8.884;2023-03-15T03:09:16;4.43;;;2.90;;
74821;SDS011;63353;48.702;8.884;2023-03-15T03:11:44;3.43;;;2.73;;
74821;SDS011;63353;48.702;8.884;2023-03-15T03:14:10;4.13;;;2.93;;
74821;SDS011;63353;48.702;8.884;2023-03-15T03:16:42;6.93;;;3.00;;
74821;SDS011;63353;48.702;8.884;2023-03-15T03:19:08;6.93;;;3.70;;
74821;SDS011;63353;48.702;8.884;2023-03-15T03:21:39;5.97;;;3.30;;
74821;SDS011;63353;48.702;8.884;2023-03-15T03:24:08;6.63;;;3.20;;
74821;SDS011;63353;48.702;8.884;2023-03-15T03:26:38;6.30;;;3.37;;
74821;SDS011;63353;48.702;8.884;2023-03-15T03:29:15;5.77;;;3.37;;
74821;SDS011;63353;48.702;8.884;2023-03-15T03:31:44;7.73;;;3.77;;
74821;SDS011;63353;48.702;8.884;2023-03-15T03:34:09;6.50;;;3.83;;
74821;SDS011;63353;48.702;8.884;2023-03-15T03:36:41;9.30;;;4.13;;
74821;SDS011;63353;48.702;8.884;2023-03-15T03:39:07;6.93;;;3.93;;
74821;SDS011;63353;48.702;8.884;2023-03-15T03:41:33;9.67;;;3.73;;
74821;SDS011;63353;48.702;8.884;2023-03-15T03:44:02;9.53;;;4.07;;
74821;SDS011;63353;48.702;8.884;2023-03-15T03:46:31;10.47;;;4.20;;
74821;SDS011;63353;48.702;8.884;2023-03-15T03:49:00;10.50;;;4.57;;
74821;SDS011;63353;48.702;8.884;2023-03-15T03:51:32;6.73;;;3.83;;
74821;SDS011;63353;48.702;8.884;2023-03-15T03:53:59;8.03;;;4.00;;
74821;SDS011;63353;48.702;8.884;2023-03-15T03:56:25;8.10;;;4.30;;
74821;SDS011;63353;48.702;8.884;2023-03-15T03:58:51;10.57;;;4.67;;
74821;SDS011;63353;48.702;8.884;2023-03-15T04:01:16;7.43;;;4.57;;
74821;SDS011;63353;48.702;8.884;2023-03-15T04:03:45;7.47;;;4.10;;
74821;SDS011;63353;48.702;8.884;2023-03-15T04:06:11;9.57;;;4.60;;
74821;SDS011;63353;48.702;8.884;2023-03-15T04:08:48;11.40;;;4.73;;
74821;SDS011;63353;48.702;8.884;2023-03-15T04:11:23;7.83;;;4.37;;
74821;SDS011;63353;48.702;8.884;2023-03-15T04:13:55;8.20;;;5.00;;
74821;SDS011;63353;48.702;8.884;2023-03-15T04:16:29;8.13;;;4.43;;
74821;SDS011;63353;48.702;8.884;2023-03-15T04:18:55;6.80;;;4.20;;
74821;SDS011;63353;48.702;8.884;2023-03-15T04:21:21;7.53;;;4.60;;
74821;SDS011;63353;48.702;8.884;2023-03-15T04:23:49;7.60;;;4.30;;
74821;SDS011;63353;48.702;8.884;2023-03-15T04:26:22;7.50;;;4.73;;
74821;SDS011;63353;48.702;8.884;2023-03-15T04:28:50;9.57;;;5.33;;
74821;SDS011;63353;48.702;8.884;2023-03-15T04:31:20;7.93;;;5.30;;
74821;SDS011;63353;48.702;8.884;2023-03-15T04:33:45;8.53;;;4.50;;
74821;SDS011;63353;48.702;8.884;2023-03-15T04:36:18;12.90;;;6.73;;
74821;SDS011;63353;48.702;8.884;2023-03-15T04:38:45;13.27;;;9.00;;
74821;SDS011;63353;48.702;8.884;2023-03-15T04:41:11;14.27;;;8.30;;
74821;SDS011;63353;48.702;8.884;2023-03-15T04:43:41;10.73;;;7.17;;
74821;SDS011;63353;48.702;8.884;2023-03-15T04:46:07;9.17;;;4.20;;
74821;SDS011;63353;48.702;8.884;2023-03-15T04:48:33;9.90;;;6.33;;
74821;SDS011;63353;48.702;8.884;2023-03-15T04:51:02;8.90;;;4.93;;
74821;SDS011;63353;48.702;8.884;2023-03-15T04:53:28;6.23;;;5.53;;
74821;SDS011;63353;48.702;8.884;2023-03-15T04:55:54;11.93;;;8.40;;
74821;SDS011;63353;48.702;8.884;2023-03-15T04:58:19;21.87;;;12.60;;
74821;SDS011;63353;48.702;8.884;2023-03-15T05:00:45;12.13;;;7.07;;
74821;SDS011;63353;48.702;8.884;2023-03-15T05:03:10;15.40;;;8.40;;
74821;SDS011;63353;48.702;8.884;2023-03-15T05:05:36;15.03;;;9.03;;
74821;SDS011;63353;48.702;8.884;2023-03-15T05:08:02;8.63;;;5.03;;
74821;SDS011;63353;48.702;8.884;2023-03-15T05:10:27;8.47;;;4.13;;
74821;SDS011;63353;48.702;8.884;2023-03-15T05:13:00;14.17;;;6.27;;
74821;SDS011;63353;48.702;8.884;2023-03-15T05:15:28;8.80;;;5.47;;
74821;SDS011;63353;48.702;8.884;2023-03-15T05:18:00;12.07;;;5.40;;
74821;SDS011;63353;48.702;8.884;2023-03-15T05:20:32;8.00;;;4.43;;
74821;SDS011;63353;48.702;8.884;2023-03-15T05:22:58;9.07;;;6.03;;
74821;SDS011;63353;48.702;8.884;2023-03-15T05:25:23;7.60;;;5.30;;
74821;SDS011;63353;48.702;8.884;2023-03-15T05:27:49;8.53;;;4.33;;
74821;SDS011;63353;48.702;8.884;2023-03-15T05:30:15;8.63;;;4.90;;
74821;SDS011;63353;48.702;8.884;2023-03-15T05:32:43;7.57;;;4.43;;
74821;SDS011;63353;48.702;8.884;2023-03-15T05:35:12;10.27;;;4.53;;
74821;SDS011;63353;48.702;8.884;2023-03-15T05:37:38;9.60;;;4.20;;
74821;SDS011;63353;48.702;8.884;2023-03-15T05:40:04;8.50;;;4.77;;
74821;SDS011;63353;48.702;8.884;2023-03-15T05:42:43;8.97;;;4.80;;
74821;SDS011;63353;48.702;8.884;2023-03-15T05:45:12;7.93;;;5.07;;
74821;SDS011;63353;48.702;8.884;2023-03-15T05:47:41;8.50;;;4.70;;
74821;SDS011;63353;48.702;8.884;2023-03-15T05:50:07;9.63;;;5.13;;
74821;SDS011;63353;48.702;8.884;2023-03-15T05:52:33;6.33;;;4.27;;
74821;SDS011;63353;48.702;8.884;2023-03-15T05:54:58;10.73;;;4.63;;
74821;SDS011;63353;48.702;8.884;2023-03-15T05:57:24;12.73;;;5.00;;
74821;SDS011;63353;48.702;8.884;2023-03-15T05:59:52;10.70;;;5.33;;
74821;SDS011;63353;48.702;8.884;2023-03-15T06:02:24;7.43;;;4.93;;
74821;SDS011;63353;48.702;8.884;2023-03-15T06:04:56;12.90;;;5.47;;
74821;SDS011;63353;48.702;8.884;2023-03-15T06:07:24;9.83;;;4.90;;
74821;SDS011;63353;48.702;8.884;2023-03-15T06:09:53;10.37;;;4.60;;
74821;SDS011;63353;48.702;8.884;2023-03-15T06:12:18;10.13;;;4.40;;
74821;SDS011;63353;48.702;8.884;2023-03-15T06:14:44;8.73;;;4.30;;
74821;SDS011;63353;48.702;8.884;2023-03-15T06:17:10;8.97;;;3.93;;
74821;SDS011;63353;48.702;8.884;2023-03-15T06:19:41;8.30;;;4.37;;
74821;SDS011;63353;48.702;8.884;2023-03-15T06:22:07;6.83;;;4.30;;
74821;SDS011;63353;48.702;8.884;2023-03-15T06:24:36;10.60;;;4.07;;
74821;SDS011;63353;48.702;8.884;2023-03-15T06:27:02;9.13;;;3.97;;
74821;SDS011;63353;48.702;8.884;2023-03-15T06:29:36;9.13;;;4.00;;
74821;SDS011;63353;48.702;8.884;2023-03-15T06:32:05;7.10;;;4.40;;
74821;SDS011;63353;48.702;8.884;2023-03-15T06:34:31;7.33;;;4.07;;
74821;SDS011;63353;48.702;8.884;2023-03-15T06:37:00;6.43;;;4.17;;
74821;SDS011;63353;48.702;8.884;2023-03-15T06:39:25;7.93;;;3.83;;
74821;SDS011;63353;48.702;8.884;2023-03-15T06:41:51;6.80;;;2.97;;
74821;SDS011;63353;48.702;8.884;2023-03-15T06:44:28;9.33;;;3.93;;
74821;SDS011;63353;48.702;8.884;2023-03-15T06:46:54;7.60;;;3.43;;
74821;SDS011;63353;48.702;8.884;2023-03-15T06:49:27;6.43;;;3.10;;
74821;SDS011;63353;48.702;8.884;2023-03-15T06:51:52;6.07;;;3.40;;
74821;SDS011;63353;48.702;8.884;2023-03-15T06:54:21;7.23;;;3.77;;
74821;SDS011;63353;48.702;8.884;2023-03-15T06:56:47;4.63;;;3.03;;
74821;SDS011;63353;48.702;8.884;2023-03-15T06:59:13;8.07;;;3.17;;
74821;SDS011;63353;48.702;8.884;2023-03-15T07:01:44;4.70;;;2.73;;
74821;SDS011;63353;48.702;8.884;2023-03-15T07:04:13;7.50;;;3.10;;
74821;SDS011;63353;48.702;8.884;2023-03-15T07:06:48;5.17;;;2.77;;
74821;SDS011;63353;48.702;8.884;2023-03-15T07:09:14;4.30;;;2.87;;
74821;SDS011;63353;48.702;8.884;2023-03-15T07:11:39;6.27;;;2.90;;
74821;SDS011;63353;48.702;8.884;2023-03-15T07:14:11;11.30;;;3.00;;
74821;SDS011;63353;48.702;8.884;2023-03-15T07:16:40;7.57;;;3.13;;
74821;SDS011;63353;48.702;8.884;2023-03-15T07:19:09;5.60;;;3.00;;
74821;SDS011;63353;48.702;8.884;2023-03-15T07:21:41;4.73;;;2.80;;
74821;SDS011;63353;48.702;8.884;2023-03-15T07:24:06;4.27;;;3.20;;
74821;SDS011;63353;48.702;8.884;2023-03-15T07:26:35;9.83;;;3.00;;
74821;SDS011;63353;48.702;8.884;2023-03-15T07:29:04;8.13;;;3.80;;
74821;SDS011;63353;48.702;8.884;2023-03-15T07:31:29;7.73;;;3.30;;
74821;SDS011;63353;48.702;8.884;2023-03-15T07:33:55;6.93;;;3.37;;
74821;SDS011;63353;48.702;8.884;2023-03-15T07:36:32;6.30;;;3.43;;
74821;SDS011;63353;48.702;8.884;2023-03-15T07:39:01;4.73;;;3.30;;
74821;SDS011;63353;48.702;8.884;2023-03-15T07:41:32;6.87;;;3.87;;
74821;SDS011;63353;48.702;8.884;2023-03-15T07:43:58;9.40;;;3.57;;
74821;SDS011;63353;48.702;8.884;2023-03-15T07:46:30;6.27;;;3.03;;
74821;SDS011;63353;48.702;8.884;2023-03-15T07:48:58;5.43;;;3.07;;
74821;SDS011;63353;48.702;8.884;2023-03-15T07:51:30;3.43;;;2.50;;
74821;SDS011;63353;48.702;8.884;2023-03-15T07:53:58;5.57;;;3.07;;
74821;SDS011;63353;48.702;8.884;2023-03-15T07:56:27;5.30;;;2.93;;
74821;SDS011;63353;48.702;8.884;2023-03-15T07:58:59;7.00;;;2.80;;
74821;SDS011;63353;48.702;8.884;2023-03-15T08:01:28;5.17;;;2.80;;
74821;SDS011;63353;48.702;8.884;2023-03-15T08:03:59;8.47;;;3.20;;
74821;SDS011;63353;48.702;8.884;2023-03-15T08:06:31;4.33;;;2.60;;
74821;SDS011;63353;48.702;8.884;2023-03-15T08:08:56;5.27;;;3.13;;
74821;SDS011;63353;48.702;8.884;2023-03-15T08:11:22;5.80;;;3.10;;
74821;SDS011;63353;48.702;8.884;2023-03-15T08:13:48;4.83;;;2.70;;
74821;SDS011;63353;48.702;8.884;2023-03-15T08:16:19;6.47;;;2.70;;
74821;SDS011;63353;48.702;8.884;2023-03-15T08:18:48;4.27;;;2.60;;
74821;SDS011;63353;48.702;8.884;2023-03-15T08:21:13;2.70;;;2.37;;
74821;SDS011;63353;48.702;8.884;2023-03-15T08:23:45;3.63;;;2.03;;
74821;SDS011;63353;48.702;8.884;2023-03-15T08:26:17;6.27;;;2.27;;
74821;SDS011;63353;48.702;8.884;2023-03-15T08:28:42;6.37;;;2.70;;
74821;SDS011;63353;48.702;8.884;2023-03-15T08:31:17;3.17;;;2.40;;
74821;SDS011;63353;48.702;8.884;2023-03-15T08:33:51;4.57;;;2.33;;
74821;SDS011;63353;48.702;8.884;2023-03-15T08:36:23;2.93;;;2.37;;
74821;SDS011;63353;48.702;8.884;2023-03-15T08:38:55;6.27;;;1.93;;
74821;SDS011;63353;48.702;8.884;2023-03-15T08:41:30;4.00;;;2.50;;
74821;SDS011;63353;48.702;8.884;2023-03-15T08:43:55;7.00;;;2.30;;
74821;SDS011;63353;48.702;8.884;2023-03-15T08:46:30;4.00;;;2.30;;
74821;SDS011;63353;48.702;8.884;2023-03-15T08:48:57;5.70;;;2.60;;
74821;SDS011;63353;48.702;8.884;2023-03-15T08:51:32;3.40;;;2.10;;
74821;SDS011;63353;48.702;8.884;2023-03-15T08:53:58;5.33;;;2.10;;
74821;SDS011;63353;48.702;8.884;2023-03-15T08:56:36;4.70;;;2.00;;
74821;SDS011;63353;48.702;8.884;2023-03-15T08:59:02;2.37;;;2.00;;
74821;SDS011;63353;48.702;8.884;2023-03-15T09:01:30;3.90;;;2.17;;
74821;SDS011;63353;48.702;8.884;2023-03-15T09:03:56;4.73;;;2.00;;
74821;SDS011;63353;48.702;8.884;2023-03-15T09:06:22;3.67;;;1.87;;
74821;SDS011;63353;48.702;8.884;2023-03-15T09:08:54;4.17;;;1.97;;
74821;SDS011;63353;48.702;8.884;2023-03-15T09:11:22;2.23;;;1.77;;
74821;SDS011;63353;48.702;8.884;2023-03-15T09:13:51;3.03;;;1.93;;
74821;SDS011;63353;48.702;8.884;2023-03-15T09:16:25;2.20;;;1.57;;
74821;SDS011;63353;48.702;8.884;2023-03-15T09:18:51;3.03;;;1.53;;
74821;SDS011;63353;48.702;8.884;2023-03-15T09:21:17;2.53;;;1.40;;
74821;SDS011;63353;48.702;8.884;2023-03-15T09:23:49;3.33;;;1.53;;
74821;SDS011;63353;48.702;8.884;2023-03-15T09:26:20;1.70;;;1.57;;
74821;SDS011;63353;48.702;8.884;2023-03-15T09:28:55;3.20;;;1.40;;
74821;SDS011;63353;48.702;8.884;2023-03-15T09:31:32;3.20;;;1.67;;
74821;SDS011;63353;48.702;8.884;2023-03-15T09:33:59;3.40;;;1.77;;
74821;SDS011;63353;48.702;8.884;2023-03-15T09:36:27;4.77;;;1.57;;
74821;SDS011;63353;48.702;8.884;2023-03-15T09:38:53;3.10;;;1.67;;
74821;SDS011;63353;48.702;8.884;2023-03-15T09:41:31;3.67;;;1.77;;
74821;SDS011;63353;48.702;8.884;2023-03-15T09:46:32;4.13;;;2.10;;
74821;SDS011;63353;48.702;8.884;2023-03-15T09:51:48;4.93;;;1.83;;
74821;SDS011;63353;48.702;8.884;2023-03-15T09:57:10;2.53;;;1.60;;
74821;SDS011;63353;48.702;8.884;2023-03-15T09:59:48;2.10;;;1.70;;
74821;SDS011;63353;48.702;8.884;2023-03-15T10:02:23;1.50;;;1.40;;
74821;SDS011;63353;48.702;8.884;2023-03-15T10:04:58;3.87;;;1.73;;
74821;SDS011;63353;48.702;8.884;2023-03-15T10:07:29;2.77;;;1.40;;
74821;SDS011;63353;48.702;8.884;2023-03-15T10:09:56;4.13;;;2.07;;
74821;SDS011;63353;48.702;8.884;2023-03-15T10:12:33;2.13;;;1.50;;
74821;SDS011;63353;48.702;8.884;2023-03-15T10:15:19;1.93;;;1.50;;
74821;SDS011;63353;48.702;8.884;2023-03-15T10:20:56;1.70;;;1.60;;
74821;SDS011;63353;48.702;8.884;2023-03-15T10:23:35;1.73;;;1.27;;
74821;SDS011;63353;48.702;8.884;2023-03-15T10:26:05;2.23;;;1.57;;
74821;SDS011;63353;48.702;8.884;2023-03-15T10:28:39;2.40;;;1.30;;
74821;SDS011;63353;48.702;8.884;2023-03-15T10:31:22;4.93;;;1.40;;
74821;SDS011;63353;48.702;8.884;2023-03-15T10:33:57;3.20;;;1.27;;
74821;SDS011;63353;48.702;8.884;2023-03-15T10:36:32;1.47;;;1.40;;
74821;SDS011;63353;48.702;8.884;2023-03-15T10:38:57;3.73;;;1.50;;
74821;SDS011;63353;48.702;8.884;2023-03-15T10:41:35;1.50;;;1.40;;
74821;SDS011;63353;48.702;8.884;2023-03-15T10:47:11;1.53;;;1.20;;
74821;SDS011;63353;48.702;8.884;2023-03-15T10:49:43;1.30;;;1.20;;
74821;SDS011;63353;48.702;8.884;2023-03-15T10:54:59;1.70;;;1.10;;
74821;SDS011;63353;48.702;8.884;2023-03-15T10:57:41;1.70;;;1.20;;
74821;SDS011;63353;48.702;8.884;2023-03-15T11:00:31;1.37;;;1.00;;
74821;SDS011;63353;48.702;8.884;2023-03-15T11:03:02;2.10;;;1.00;;
74821;SDS011;63353;48.702;8.884;2023-03-15T11:05:41;1.30;;;1.20;;
74821;SDS011;63353;48.702;8.884;2023-03-15T11:08:13;1.13;;;1.03;;
74821;SDS011;63353;48.702;8.884;2023-03-15T11:10:40;1.13;;;0.90;;
74821;SDS011;63353;48.702;8.884;2023-03-15T11:13:21;1.57;;;1.20;;
74821;SDS011;63353;48.702;8.884;2023-03-15T11:18:27;2.17;;;0.97;;
74821;SDS011;63353;48.702;8.884;2023-03-15T11:21:22;1.47;;;0.90;;
74821;SDS011;63353;48.702;8.884;2023-03-15T11:23:55;1.10;;;1.00;;
74821;SDS011;63353;48.702;8.884;2023-03-15T11:26:23;1.00;;;1.00;;
74821;SDS011;63353;48.702;8.884;2023-03-15T11:31:50;1.83;;;0.80;;
74821;SDS011;63353;48.702;8.884;2023-03-15T11:34:34;0.87;;;0.87;;
74821;SDS011;63353;48.702;8.884;2023-03-15T11:46:07;2.00;;;1.17;;
74821;SDS011;63353;48.702;8.884;2023-03-15T11:48:38;0.80;;;0.80;;
74821;SDS011;63353;48.702;8.884;2023-03-15T11:51:11;1.10;;;0.90;;
74821;SDS011;63353;48.702;8.884;2023-03-15T11:53:39;1.50;;;0.90;;
74821;SDS011;63353;48.702;8.884;2023-03-15T11:56:22;0.80;;;0.80;;
74821;SDS011;63353;48.702;8.884;2023-03-15T12:01:57;2.17;;;1.20;;
74821;SDS011;63353;48.702;8.884;2023-03-15T12:04:42;1.17;;;1.00;;
74821;SDS011;63353;48.702;8.884;2023-03-15T12:22:36;6.80;;;4.53;;
74821;SDS011;63353;48.702;8.884;2023-03-15T12:25:11;1.20;;;1.10;;
74821;SDS011;63353;48.702;8.884;2023-03-15T12:27:45;2.87;;;1.20;;
74821;SDS011;63353;48.702;8.884;2023-03-15T12:30:18;1.53;;;1.00;;
74821;SDS011;63353;48.702;8.884;2023-03-15T12:32:55;1.77;;;1.30;;
74821;SDS011;63353;48.702;8.884;2023-03-15T12:35:22;1.10;;;1.10;;
74821;SDS011;63353;48.702;8.884;2023-03-15T12:37:53;1.30;;;1.10;;
74821;SDS011;63353;48.702;8.884;2023-03-15T12:41:06;1.37;;;1.20;;
74821;SDS011;63353;48.702;8.884;2023-03-15T12:46:05;1.10;;;1.10;;
74821;SDS011;63353;48.702;8.884;2023-03-15T12:48:31;1.30;;;1.20;;
74821;SDS011;63353;48.702;8.884;2023-03-15T12:50:59;1.80;;;1.23;;
74821;SDS011;63353;48.702;8.884;2023-03-15T12:59:25;1.77;;;1.10;;
74821;SDS011;63353;48.702;8.884;2023-03-15T13:01:52;1.67;;;1.30;;
74821;SDS011;63353;48.702;8.884;2023-03-15T13:04:21;1.83;;;1.20;;
74821;SDS011;63353;48.702;8.884;2023-03-15T13:06:53;2.03;;;1.27;;
74821;SDS011;63353;48.702;8.884;2023-03-15T13:17:55;2.17;;;1.40;;
74821;SDS011;63353;48.702;8.884;2023-03-15T13:28:38;1.60;;;1.50;;
74821;SDS011;63353;48.702;8.884;2023-03-15T13:31:10;1.80;;;1.67;;
74821;SDS011;63353;48.702;8.884;2023-03-15T13:33:38;1.83;;;1.70;;
74821;SDS011;63353;48.702;8.884;2023-03-15T13:36:11;2.70;;;2.10;;
74821;SDS011;63353;48.702;8.884;2023-03-15T13:38:41;2.10;;;1.83;;
74821;SDS011;63353;48.702;8.884;2023-03-15T13:41:41;2.57;;;1.80;;
74821;SDS011;63353;48.702;8.884;2023-03-15T13:44:03;4.43;;;2.20;;
74821;SDS011;63353;48.702;8.884;2023-03-15T13:46:38;2.00;;;1.80;;
74821;SDS011;63353;48.702;8.884;2023-03-15T13:49:04;4.27;;;2.20;;
74821;SDS011;63353;48.702;8.884;2023-03-15T13:51:31;2.57;;;2.37;;
74821;SDS011;63353;48.702;8.884;2023-03-15T13:56:51;3.33;;;2.00;;
74821;SDS011;63353;48.702;8.884;2023-03-15T13:59:26;4.17;;;2.23;;
74821;SDS011;63353;48.702;8.884;2023-03-15T14:02:19;4.67;;;2.87;;
74821;SDS011;63353;48.702;8.884;2023-03-15T14:05:10;3.27;;;2.00;;
74821;SDS011;63353;48.702;8.884;2023-03-15T14:07:39;3.10;;;2.27;;
74821;SDS011;63353;48.702;8.884;2023-03-15T14:12:56;5.23;;;2.83;;
74821;SDS011;63353;48.702;8.884;2023-03-15T14:15:36;5.33;;;3.70;;
74821;SDS011;63353;48.702;8.884;2023-03-15T14:20:44;4.17;;;3.33;;
74821;SDS011;63353;48.702;8.884;2023-03-15T14:23:13;10.43;;;8.27;;
74821;SDS011;63353;48.702;8.884;2023-03-15T14:25:41;3.70;;;2.40;;
74821;SDS011;63353;48.702;8.884;2023-03-15T14:28:12;3.30;;;2.07;;
74821;SDS011;63353;48.702;8.884;2023-03-15T14:30:50;5.17;;;2.70;;
74821;SDS011;63353;48.702;8.884;2023-03-15T14:33:23;2.37;;;2.17;;
74821;SDS011;63353;48.702;8.884;2023-03-15T14:35:59;5.30;;;3.20;;
74821;SDS011;63353;48.702;8.884;2023-03-15T14:38:30;3.20;;;2.47;;
74821;SDS011;63353;48.702;8.884;2023-03-15T14:41:18;3.40;;;3.00;;
74821;SDS011;63353;48.702;8.884;2023-03-15T14:43:49;3.77;;;2.77;;
74821;SDS011;63353;48.702;8.884;2023-03-15T14:49:12;3.70;;;2.50;;
74821;SDS011;63353;48.702;8.884;2023-03-15T14:52:01;2.67;;;2.17;;
74821;SDS011;63353;48.702;8.884;2023-03-15T14:54:29;2.40;;;2.10;;
74821;SDS011;63353;48.702;8.884;2023-03-15T14:56:55;3.17;;;2.70;;
74821;SDS011;63353;48.702;8.884;2023-03-15T14:59:33;2.37;;;2.13;;
74821;SDS011;63353;48.702;8.884;2023-03-15T15:01:59;2.50;;;2.30;;
74821;SDS011;63353;48.702;8.884;2023-03-15T15:04:28;2.80;;;2.47;;
74821;SDS011;63353;48.702;8.884;2023-03-15T15:06:57;4.97;;;2.57;;
74821;SDS011;63353;48.702;8.884;2023-03-15T15:09:26;4.67;;;3.00;;
74821;SDS011;63353;48.702;8.884;2023-03-15T15:11:53;17.77;;;11.93;;
74821;SDS011;63353;48.702;8.884;2023-03-15T15:14:19;5.83;;;5.17;;
74821;SDS011;63353;48.702;8.884;2023-03-15T15:16:46;3.87;;;3.47;;
74821;SDS011;63353;48.702;8.884;2023-03-15T15:19:13;5.13;;;3.50;;
74821;SDS011;63353;48.702;8.884;2023-03-15T15:21:41;5.63;;;3.73;;
74821;SDS011;63353;48.702;8.884;2023-03-15T15:24:12;10.13;;;5.27;;
74821;SDS011;63353;48.702;8.884;2023-03-15T15:26:40;4.87;;;4.40;;
74821;SDS011;63353;48.702;8.884;2023-03-15T15:29:09;24.67;;;16.20;;
74821;SDS011;63353;48.702;8.884;2023-03-15T15:31:39;39.40;;;25.23;;
74821;SDS011;63353;48.702;8.884;2023-03-15T15:34:06;23.17;;;16.30;;
74821;SDS011;63353;48.702;8.884;2023-03-15T15:36:32;27.83;;;18.50;;
74821;SDS011;63353;48.702;8.884;2023-03-15T15:39:04;5.43;;;4.23;;
74821;SDS011;63353;48.702;8.884;2023-03-15T15:41:55;5.53;;;4.27;;
74821;SDS011;63353;48.702;8.884;2023-03-15T15:44:21;2.70;;;2.50;;
74821;SDS011;63353;48.702;8.884;2023-03-15T15:46:49;4.23;;;3.47;;
74821;SDS011;63353;48.702;8.884;2023-03-15T15:49:15;3.77;;;3.13;;
74821;SDS011;63353;48.702;8.884;2023-03-15T15:51:44;2.37;;;2.17;;
74821;SDS011;63353;48.702;8.884;2023-03-15T15:54:17;4.53;;;3.30;;
74821;SDS011;63353;48.702;8.884;2023-03-15T15:56:51;8.83;;;5.40;;
74821;SDS011;63353;48.702;8.884;2023-03-15T15:59:19;4.90;;;3.97;;
74821;SDS011;63353;48.702;8.884;2023-03-15T16:01:45;3.27;;;2.80;;
74821;SDS011;63353;48.702;8.884;2023-03-15T16:04:15;9.83;;;6.10;;
74821;SDS011;63353;48.702;8.884;2023-03-15T16:06:40;5.13;;;4.07;;
74821;SDS011;63353;48.702;8.884;2023-03-15T16:09:07;11.47;;;6.50;;
74821;SDS011;63353;48.702;8.884;2023-03-15T16:11:35;18.20;;;9.50;;
74821;SDS011;63353;48.702;8.884;2023-03-15T16:14:01;7.27;;;5.07;;
74821;SDS011;63353;48.702;8.884;2023-03-15T16:16:27;6.57;;;4.87;;
74821;SDS011;63353;48.702;8.884;2023-03-15T16:18:53;6.07;;;4.23;;
74821;SDS011;63353;48.702;8.884;2023-03-15T16:21:37;3.77;;;3.20;;
74821;SDS011;63353;48.702;8.884;2023-03-15T16:24:28;20.50;;;11.57;;
74821;SDS011;63353;48.702;8.884;2023-03-15T16:26:58;14.47;;;8.37;;
74821;SDS011;63353;48.702;8.884;2023-03-15T16:29:36;14.30;;;10.83;;
74821;SDS011;63353;48.702;8.884;2023-03-15T16:32:10;4.50;;;3.80;;
74821;SDS011;63353;48.702;8.884;2023-03-15T16:34:46;3.20;;;2.90;;
74821;SDS011;63353;48.702;8.884;2023-03-15T16:37:13;3.70;;;3.20;;
74821;SDS011;63353;48.702;8.884;2023-03-15T16:39:41;4.07;;;3.30;;